Terminal Aerodrome Forecast
Issued by NWS Upton, NY

Home | Current Version | Previous Version | Text Only | Print | Product List | Glossary On
Versions: 1 2 3 4 5 6 7 8 9 10 11 12 13 14 15 16 17 18 19 20 21 22 23 24 25 26 27 28 29 30 31 32 33 34 35
000
FTUS41 KOKX 011507 AAC
TAFJFK
TAF AMD
KJFK 011507Z 0115/0218 22013G20KT P6SM FEW025 SCT050
     FM012000 20016G24KT P6SM BKN050
     FM020100 22011KT P6SM BKN050
     FM020700 32007KT P6SM SCT050 BKN250
     FM021700 18009KT P6SM SCT050 BKN250=

USA.gov is the U.S. government's official web portal to all federal, state and local government web resources and services.